Time;durP1;ratioP1;P1;durP2;ratioP2;P2;SDS_P1;SDS_P2;PMS_P1;PMS_P2;Temp;Humidity;BMP_temperature;BMP_pressure;BME280_temperature;BME280_humidity;BME280_pressure;Samples;Min_cycle;Max_cycle;Signal;HPM_P1;HPM_P2
2022/03/23 00:00:37;;;;;;;12.47;4.90;;;;;;;9.74;29.00;96309.63;4932182;29;20539;-60
2022/03/23 00:03:04;;;;;;;20.30;6.77;;;;;;;9.57;28.77;96300.69;4931587;29;20453;-63
2022/03/23 00:05:32;;;;;;;12.97;5.50;;;;;;;9.68;29.00;96307.84;4932091;29;20467;-63
2022/03/23 00:08:00;;;;;;;11.17;4.47;;;;;;;9.42;28.64;96308.06;4932023;29;20436;-56
2022/03/23 00:10:27;;;;;;;7.77;2.90;;;;;;;9.61;29.21;96281.75;4931921;29;20535;-56
2022/03/23 00:12:57;;;;;;;10.83;2.63;;;;;;;9.58;29.06;96300.47;4931582;29;20433;-64
2022/03/23 00:15:24;;;;;;;5.07;2.00;;;;;;;10.10;28.54;96291.34;4932232;29;20441;-62
2022/03/23 00:17:51;;;;;;;8.17;2.70;;;;;;;10.54;27.38;96282.38;4932084;29;20484;-56
2022/03/23 00:20:18;;;;;;;8.47;2.53;;;;;;;10.33;27.68;96286.25;4932013;29;20452;-59
2022/03/23 00:22:51;;;;;;;8.63;2.73;;;;;;;10.49;27.88;96287.50;4931988;29;20456;-59
2022/03/23 00:25:18;;;;;;;5.00;2.10;;;;;;;9.59;28.19;96280.34;4932312;29;20444;-62
2022/03/23 00:27:45;;;;;;;6.97;2.13;;;;;;;9.59;28.73;96275.94;4932666;29;20449;-65
2022/03/23 00:30:12;;;;;;;6.30;2.10;;;;;;;9.37;29.18;96279.94;4931627;29;20484;-60
2022/03/23 00:32:39;;;;;;;10.20;2.43;;;;;;;9.96;28.18;96279.41;4932099;29;20449;-63
2022/03/23 00:35:06;;;;;;;18.03;2.70;;;;;;;10.28;28.11;96265.16;4931538;29;20483;-60
2022/03/23 00:37:33;;;;;;;6.40;2.33;;;;;;;10.26;27.81;96272.44;4931217;29;20496;-60
2022/03/23 00:40:00;;;;;;;7.07;1.97;;;;;;;9.89;28.64;96273.44;4931701;29;20436;-63
2022/03/23 00:42:27;;;;;;;8.37;2.60;;;;;;;9.77;28.42;96275.16;4914926;29;20460;-58
2022/03/23 00:44:54;;;;;;;7.93;2.47;;;;;;;9.60;28.13;96263.66;4914531;29;20461;-61
2022/03/23 00:47:22;;;;;;;7.07;2.53;;;;;;;9.68;29.05;96271.22;4931368;29;20519;-59
2022/03/23 00:49:49;;;;;;;6.83;2.33;;;;;;;9.38;28.71;96270.28;4931438;29;20452;-62
2022/03/23 00:52:16;;;;;;;6.47;2.83;;;;;;;9.38;28.76;96270.28;4931706;29;20448;-57
2022/03/23 00:54:43;;;;;;;10.37;2.40;;;;;;;9.66;28.42;96268.00;4931140;29;20504;-61
2022/03/23 00:57:10;;;;;;;7.67;2.40;;;;;;;10.12;27.65;96268.38;4932106;29;20440;-57
2022/03/23 00:59:38;;;;;;;7.30;2.97;;;;;;;10.32;27.88;96263.69;4931395;29;20444;-61
2022/03/23 01:02:09;;;;;;;7.53;2.57;;;;;;;10.27;27.87;96268.81;4914441;29;20449;-62
2022/03/23 01:04:37;;;;;;;8.73;3.23;;;;;;;10.08;28.36;96275.03;4931307;29;20456;-65
2022/03/23 01:07:03;;;;;;;9.07;2.37;;;;;;;10.35;27.54;96268.50;4931546;29;20428;-59
2022/03/23 01:09:30;;;;;;;4.03;2.23;;;;;;;10.45;27.31;96262.72;4914416;29;20523;-61
2022/03/23 01:11:57;;;;;;;7.10;2.38;;;;;;;10.49;27.39;96267.28;4914207;29;21151;-57
2022/03/23 01:14:25;;;;;;;6.37;2.70;;;;;;;10.41;27.98;96267.63;4930081;29;20561;-63
2022/03/23 01:16:54;;;;;;;8.17;2.80;;;;;;;10.49;27.36;96263.91;4931573;29;20456;-59
2022/03/23 01:19:25;;;;;;;4.10;2.50;;;;;;;10.67;27.17;96262.03;4914276;29;20444;-59
2022/03/23 01:21:54;;;;;;;9.47;2.77;;;;;;;10.06;27.97;96261.34;4914400;29;20850;-57
2022/03/23 01:24:21;;;;;;;7.50;2.73;;;;;;;10.27;27.57;96260.94;4933200;29;20964;-60
2022/03/23 01:26:48;;;;;;;6.97;2.80;;;;;;;10.43;27.40;96260.34;4935100;29;20440;-61
2022/03/23 01:29:15;;;;;;;7.40;3.00;;;;;;;10.19;27.98;96248.94;4917975;29;21070;-59
2022/03/23 01:31:42;;;;;;;7.97;3.30;;;;;;;10.39;27.59;96259.19;4934823;29;20487;-62
2022/03/23 01:34:09;;;;;;;7.43;3.00;;;;;;;10.43;27.72;96252.47;4934590;29;20443;-59
2022/03/23 01:36:36;;;;;;;6.77;2.73;;;;;;;10.14;26.87;96254.00;4934370;29;20558;-55
2022/03/23 01:39:03;;;;;;;5.65;2.67;;;;;;;10.65;27.21;96248.34;4935126;29;20444;-56
2022/03/23 01:41:35;;;;;;;8.45;2.63;;;;;;;10.35;27.65;96244.09;4918465;29;20344;-58
2022/03/23 01:44:19;;;;;;;9.40;2.73;;;;;;;10.46;27.22;96236.31;4934704;29;20232;-56
2022/03/23 01:47:08;;;;;;;8.63;2.43;;;;;;;10.23;26.99;96259.78;4917993;29;20472;-61
2022/03/23 01:49:38;;;;;;;10.50;3.30;;;;;;;10.09;27.94;96253.88;4934487;29;20486;-57
2022/03/23 01:52:08;;;;;;;9.30;2.95;;;;;;;10.14;27.67;96258.47;4934836;29;21045;-57
2022/03/23 01:54:36;;;;;;;5.20;2.70;;;;;;;10.10;28.07;96265.16;4917536;29;20205;-59
2022/03/23 01:57:05;;;;;;;7.97;3.13;;;;;;;10.18;27.78;96257.03;4917939;29;20928;-67
2022/03/23 01:59:33;;;;;;;6.53;3.37;;;;;;;10.20;27.63;96260.19;4917318;29;20534;-58
2022/03/23 02:02:01;;;;;;;7.22;3.30;;;;;;;9.99;28.38;96258.81;4917247;29;20845;-54
2022/03/23 02:04:32;;;;;;;8.20;4.03;;;;;;;10.01;27.82;96255.97;4916928;29;20656;-58
2022/03/23 02:06:59;;;;;;;7.83;3.67;;;;;;;10.19;27.95;96256.00;4934798;29;20448;-58
2022/03/23 02:09:28;;;;;;;13.53;3.63;;;;;;;9.88;28.58;96261.34;4916946;29;20539;-61
2022/03/23 02:12:01;;;;;;;11.07;3.83;;;;;;;10.12;27.89;96253.47;4917408;29;20531;-62
2022/03/23 02:14:29;;;;;;;10.13;4.03;;;;;;;10.14;27.65;96235.69;4916694;29;21207;-62
2022/03/23 02:16:56;;;;;;;8.77;3.70;;;;;;;10.23;27.97;96251.94;4917222;29;20290;-64
2022/03/23 02:19:23;;;;;;;9.20;3.65;;;;;;;9.71;28.46;96228.88;4932840;29;20204;-58
2022/03/23 02:21:53;;;;;;;9.37;4.23;;;;;;;9.62;28.61;96253.75;4917195;29;20684;-55
2022/03/23 02:24:28;;;;;;;7.47;3.83;;;;;;;9.86;28.03;96258.13;4933983;29;20432;-54
2022/03/23 02:26:56;;;;;;;9.90;4.20;;;;;;;10.10;28.07;96249.44;4934465;29;20463;-59
2022/03/23 02:29:29;;;;;;;12.53;4.20;;;;;;;10.18;27.83;96262.25;4934018;29;20205;-57
2022/03/23 02:31:57;;;;;;;12.57;3.60;;;;;;;9.33;28.90;96267.50;4934027;29;20519;-58
2022/03/23 02:34:25;;;;;;;8.18;3.00;;;;;;;9.41;28.77;96270.66;4933465;29;20466;-56
2022/03/23 02:36:55;;;;;;;11.10;4.28;;;;;;;9.40;29.36;96268.25;4934055;29;20297;-60
2022/03/23 02:39:22;;;;;;;6.00;3.80;;;;;;;10.04;28.23;96266.00;4933787;29;20591;-56
2022/03/23 02:41:49;;;;;;;13.63;3.97;;;;;;;10.01;28.37;96267.25;4933941;29;20181;-59
2022/03/23 02:44:17;;;;;;;13.25;6.43;;;;;;;10.46;28.06;96270.38;4932870;29;20188;-56
2022/03/23 02:46:44;;;;;;;15.00;5.32;;;;;;;10.40;28.26;96281.72;4934388;29;20220;-61
2022/03/23 02:49:11;;;;;;;14.07;5.55;;;;;;;10.11;28.30;96272.00;4934039;29;20188;-58
2022/03/23 02:51:38;;;;;;;11.23;5.22;;;;;;;9.98;28.42;96282.59;4934193;29;20232;-59
2022/03/23 03:03:05;;;;;;;16.27;5.22;;;;;;;8.81;30.12;96290.38;4933282;29;20688;-60
2022/03/23 03:05:32;;;;;;;13.90;5.50;;;;;;;9.25;29.38;96280.84;4933415;29;20210;-55
2022/03/23 03:10:44;;;;;;;26.35;11.18;;;;;;;9.33;29.31;96283.19;4933274;29;20224;-57
2022/03/23 03:13:11;;;;;;;18.35;8.35;;;;;;;9.47;29.93;96285.47;4933731;29;20570;-59
2022/03/23 03:15:38;;;;;;;11.10;4.82;;;;;;;9.34;30.25;96284.81;4933156;29;20209;-60
2022/03/23 03:18:05;;;;;;;12.85;4.88;;;;;;;9.03;30.51;96291.66;4934490;29;20244;-56
2022/03/23 03:20:32;;;;;;;11.82;4.05;;;;;;;9.23;29.99;96282.88;4932550;29;20212;-61
2022/03/23 03:22:59;;;;;;;9.13;4.45;;;;;;;8.50;31.10;96293.00;4933326;29;20219;-61
2022/03/23 03:25:26;;;;;;;8.98;4.53;;;;;;;8.32;32.12;96298.06;4933021;29;20188;-58
2022/03/23 03:27:52;;;;;;;7.28;3.67;;;;;;;8.58;31.09;96287.50;4933226;29;20248;-60
2022/03/23 03:30:20;;;;;;;9.80;3.80;;;;;;;8.54;31.08;96280.31;4932995;29;20203;-54
2022/03/23 03:32:47;;;;;;;8.27;3.75;;;;;;;8.55;30.66;96287.94;4932791;29;20207;-62
2022/03/23 03:35:14;;;;;;;8.38;3.83;;;;;;;7.43;32.51;96291.00;4932929;29;20204;-61
2022/03/23 03:37:41;;;;;;;8.95;3.33;;;;;;;8.12;31.91;96268.56;4932791;29;20240;-60
2022/03/23 03:40:09;;;;;;;8.13;2.97;;;;;;;8.60;31.59;96285.50;4932526;29;20219;-57
2022/03/23 03:42:37;;;;;;;8.38;4.15;;;;;;;8.73;31.47;96269.75;4932922;29;20196;-61
2022/03/23 03:45:05;;;;;;;5.47;2.70;;;;;;;8.77;31.15;96284.00;4932762;29;20197;-57
2022/03/23 03:47:33;;;;;;;16.00;8.75;;;;;;;8.81;30.66;96269.47;4932348;29;20208;-64
2022/03/23 03:50:00;;;;;;;9.82;5.07;;;;;;;8.97;31.29;96273.41;4932688;29;20216;-63
2022/03/23 03:52:27;;;;;;;9.98;4.80;;;;;;;9.06;31.56;96272.13;4932783;29;20267;-56
2022/03/23 03:54:54;;;;;;;12.25;4.00;;;;;;;8.66;32.11;96276.81;4932836;29;20224;-61
2022/03/23 03:57:20;;;;;;;10.20;3.67;;;;;;;8.94;31.92;96277.22;4932423;29;20721;-57
2022/03/23 03:59:47;;;;;;;11.90;3.63;;;;;;;8.94;31.75;96274.63;4932391;29;20204;-58
2022/03/23 04:02:14;;;;;;;11.88;3.65;;;;;;;9.16;31.93;96286.34;4932810;29;20200;-62
2022/03/23 04:04:41;;;;;;;9.02;3.80;;;;;;;9.15;32.00;96286.56;4931352;29;20291;-62
2022/03/23 04:07:08;;;;;;;11.05;3.25;;;;;;;9.04;32.08;96295.88;4915638;29;20188;-58
2022/03/23 04:09:35;;;;;;;9.23;3.95;;;;;;;9.08;31.73;96294.47;4932365;29;20197;-63
2022/03/23 04:12:03;;;;;;;10.00;3.92;;;;;;;8.84;32.76;96289.97;4931733;29;20692;-58
2022/03/23 04:14:30;;;;;;;13.05;3.83;;;;;;;8.99;32.43;96287.88;4931223;29;20240;-63
2022/03/23 04:16:56;;;;;;;12.32;4.32;;;;;;;8.87;32.99;96289.56;4932438;29;20204;-64
2022/03/23 04:19:23;;;;;;;12.60;4.45;;;;;;;8.89;32.44;96286.72;4932056;29;20200;-62
2022/03/23 04:21:50;;;;;;;12.60;4.60;;;;;;;8.75;32.70;96291.25;4931875;29;20212;-61
2022/03/23 04:24:17;;;;;;;10.50;5.10;;;;;;;9.21;31.96;96298.78;4931483;29;20197;-57
2022/03/23 04:26:44;;;;;;;12.50;4.80;;;;;;;9.08;32.64;96286.63;4932644;29;20247;-59
2022/03/23 04:29:11;;;;;;;14.02;4.90;;;;;;;9.09;32.45;96290.81;4931786;29;20208;-61
2022/03/23 04:31:38;;;;;;;9.68;5.05;;;;;;;9.08;32.93;96302.31;4932310;29;20227;-57
2022/03/23 04:34:06;;;;;;;13.98;5.57;;;;;;;9.10;32.76;96304.69;4931612;29;20723;-58
2022/03/23 04:36:32;;;;;;;16.02;5.68;;;;;;;9.03;32.63;96304.72;4931509;29;20388;-58
2022/03/23 04:39:00;;;;;;;11.48;5.53;;;;;;;9.15;32.61;96302.25;4931698;29;20636;-65
2022/03/23 04:41:27;;;;;;;8.10;4.70;;;;;;;9.00;32.92;96299.94;4932092;29;20209;-63
2022/03/23 04:43:54;;;;;;;10.70;5.30;;;;;;;9.15;32.68;96300.44;4931653;29;20574;-60
2022/03/23 04:46:21;;;;;;;11.80;5.82;;;;;;;9.11;32.69;96296.63;4931501;29;20204;-60
2022/03/23 04:48:48;;;;;;;11.02;4.97;;;;;;;9.18;32.72;96288.72;4932079;29;20203;-62
2022/03/23 04:51:14;;;;;;;12.35;5.82;;;;;;;9.20;33.11;96303.22;4931044;29;20757;-59
2022/03/23 04:53:41;;;;;;;10.75;5.15;;;;;;;9.25;32.78;96296.56;4931748;29;20216;-62
2022/03/23 04:56:08;;;;;;;16.85;6.03;;;;;;;8.94;33.52;96300.75;4931075;29;20248;-59
2022/03/23 04:58:35;;;;;;;14.02;6.40;;;;;;;9.06;33.35;96304.31;4931740;29;20232;-61
2022/03/23 05:01:03;;;;;;;18.65;7.53;;;;;;;8.40;34.11;96304.88;4930799;29;20193;-55
2022/03/23 05:03:30;;;;;;;16.65;7.57;;;;;;;8.31;34.04;96298.28;4930244;29;20698;-56
2022/03/23 05:05:57;;;;;;;12.65;6.63;;;;;;;8.43;34.24;96292.19;4930079;29;20205;-59
2022/03/23 05:08:24;;;;;;;13.48;5.15;;;;;;;8.81;33.99;96295.59;4931445;29;20209;-60
2022/03/23 05:10:52;;;;;;;12.25;4.75;;;;;;;8.80;33.69;96291.41;4930303;29;20196;-62
2022/03/23 05:13:18;;;;;;;12.00;5.50;;;;;;;8.98;33.17;96307.19;4931336;29;20606;-63
2022/03/23 05:15:45;;;;;;;16.13;6.10;;;;;;;9.06;33.12;96300.91;4931430;29;20625;-58
2022/03/23 05:18:12;;;;;;;18.13;5.85;;;;;;;9.27;32.94;96303.16;4932167;29;20208;-62
2022/03/23 05:20:39;;;;;;;15.23;6.72;;;;;;;8.94;33.53;96308.59;4931619;29;20219;-65
2022/03/23 05:23:07;;;;;;;12.90;5.60;;;;;;;9.03;34.04;96302.13;4931725;29;20209;-63
2022/03/23 05:25:34;;;;;;;14.50;5.93;;;;;;;8.93;34.67;96303.59;4931435;29;20639;-65
2022/03/23 05:28:01;;;;;;;13.82;6.22;;;;;;;9.05;35.72;96312.38;4931510;29;20533;-57
2022/03/23 05:30:28;;;;;;;13.95;6.65;;;;;;;9.07;36.24;96316.38;4931520;29;20276;-59
2022/03/23 05:32:55;;;;;;;15.10;5.75;;;;;;;9.06;36.41;96299.09;4930977;29;20276;-58
2022/03/23 05:35:22;;;;;;;22.33;7.13;;;;;;;9.20;37.50;96310.25;4931209;29;20254;-59
2022/03/23 05:37:49;;;;;;;16.45;6.57;;;;;;;9.52;39.31;96308.41;4931475;29;20243;-64
2022/03/23 05:40:17;;;;;;;17.65;8.20;;;;;;;9.71;37.15;96312.66;4930549;29;20279;-64
2022/03/23 05:42:44;;;;;;;23.50;10.20;;;;;;;10.09;34.72;96305.47;4931521;29;20704;-64
2022/03/23 05:45:11;;;;;;;19.08;9.40;;;;;;;9.71;34.53;96323.94;4931241;29;20264;-64
2022/03/23 05:47:39;;;;;;;22.52;8.90;;;;;;;9.73;33.99;96315.84;4931522;29;20300;-61
2022/03/23 05:50:08;;;;;;;20.35;8.65;;;;;;;9.97;34.15;96302.75;4931650;29;20205;-57
2022/03/23 05:52:36;;;;;;;20.80;8.88;;;;;;;9.85;33.97;96303.69;4931371;29;20241;-63
2022/03/23 05:55:07;;;;;;;20.30;8.50;;;;;;;10.29;32.73;96321.78;4931129;29;20192;-61
2022/03/23 05:57:35;;;;;;;22.70;8.50;;;;;;;10.40;32.95;96315.78;4931849;29;20208;-61
2022/03/23 06:00:07;;;;;;;21.97;7.30;;;;;;;10.41;33.21;96298.25;4931145;29;20209;-59
2022/03/23 06:02:38;;;;;;;27.95;6.93;;;;;;;10.58;32.72;96321.03;4931906;29;20452;-58
2022/03/23 06:05:06;;;;;;;17.00;6.40;;;;;;;10.69;32.71;96322.88;4930682;29;20212;-56
2022/03/23 06:07:34;;;;;;;24.50;9.45;;;;;;;10.71;32.92;96317.44;4931400;29;20196;-59
2022/03/23 06:10:07;;;;;;;18.13;9.48;;;;;;;10.63;33.57;96323.00;4931816;29;20211;-58
2022/03/23 06:12:34;;;;;;;27.98;10.07;;;;;;;9.93;34.98;96317.28;4935216;29;20243;-62
2022/03/23 06:15:01;;;;;;;37.65;20.88;;;;;;;10.24;35.94;96319.00;4933956;29;20201;-59
2022/03/23 06:17:28;;;;;;;24.77;12.38;;;;;;;10.48;35.01;96320.75;4934628;29;20595;-65
2022/03/23 06:19:55;;;;;;;17.50;8.97;;;;;;;10.56;34.85;96324.88;4934057;29;20220;-61
2022/03/23 06:22:22;;;;;;;20.45;9.02;;;;;;;10.39;34.47;96319.44;4934700;29;20531;-56
2022/03/23 06:24:52;;;;;;;17.73;7.95;;;;;;;10.43;34.64;96327.66;4934362;29;20253;-65
2022/03/23 06:27:19;;;;;;;22.23;7.53;;;;;;;10.77;33.90;96319.97;4934550;29;20216;-56
2022/03/23 06:29:46;;;;;;;15.52;7.57;;;;;;;10.57;35.01;96319.44;4933867;29;20515;-58
2022/03/23 06:32:13;;;;;;;17.35;7.45;;;;;;;10.85;34.06;96305.75;4933437;29;20679;-63
2022/03/23 06:34:40;;;;;;;18.23;6.50;;;;;;;10.53;35.27;96315.63;4933447;29;20220;-56
2022/03/23 06:37:08;;;;;;;20.93;6.93;;;;;;;10.71;35.87;96326.09;4934151;29;20555;-62
2022/03/23 06:39:35;;;;;;;11.85;5.25;;;;;;;10.57;35.88;96308.94;4933911;29;20955;-63
2022/03/23 06:42:02;;;;;;;10.97;5.00;;;;;;;10.95;35.21;96306.00;4933989;29;20230;-63
2022/03/23 06:44:29;;;;;;;10.67;4.43;;;;;;;11.01;35.26;96303.31;4933741;29;20455;-64
2022/03/23 06:46:56;;;;;;;15.57;4.90;;;;;;;11.26;34.67;96312.84;4934377;29;20880;-61
2022/03/23 06:49:23;;;;;;;14.30;5.87;;;;;;;11.15;35.10;96317.84;4933487;29;20836;-57
2022/03/23 06:51:50;;;;;;;14.23;5.70;;;;;;;11.62;34.35;96312.69;4934130;29;20494;-61
2022/03/23 06:54:18;;;;;;;16.07;5.60;;;;;;;11.36;34.63;96307.84;4933399;29;20212;-62
2022/03/23 06:56:45;;;;;;;10.70;5.50;;;;;;;11.75;34.09;96312.50;4933947;29;20452;-63
2022/03/23 06:59:11;;;;;;;10.67;4.80;;;;;;;11.71;33.71;96321.84;4934059;29;20463;-57
2022/03/23 07:01:38;;;;;;;11.40;4.70;;;;;;;11.88;33.13;96322.75;4934399;29;20456;-59
2022/03/23 07:04:05;;;;;;;18.60;5.37;;;;;;;12.03;33.60;96321.28;4933335;29;20456;-62
2022/03/23 07:06:32;;;;;;;9.00;3.93;;;;;;;11.95;32.69;96324.25;4933908;29;20947;-67
2022/03/23 07:11:44;;;;;;;12.03;4.10;;;;;;;11.94;32.82;96324.47;4933897;29;20675;-62
2022/03/23 07:14:11;;;;;;;14.90;6.10;;;;;;;11.49;33.50;96326.00;4933829;29;20474;-64
2022/03/23 07:16:38;;;;;;;12.87;5.27;;;;;;;11.63;33.53;96328.19;4934150;29;20503;-65
2022/03/23 07:19:05;;;;;;;11.80;4.30;;;;;;;11.74;33.31;96335.31;4933298;29;20503;-62
2022/03/23 07:21:32;;;;;;;13.30;5.43;;;;;;;12.14;33.11;96322.28;4933652;29;20447;-55
2022/03/23 07:23:59;;;;;;;13.07;4.80;;;;;;;12.20;32.31;96327.44;4932796;29;20433;-56
2022/03/23 07:26:26;;;;;;;8.97;3.93;;;;;;;12.36;32.01;96304.91;4933604;29;20983;-54
2022/03/23 07:28:53;;;;;;;9.00;4.67;;;;;;;12.26;32.23;96319.66;4933447;29;20955;-62
2022/03/23 07:31:20;;;;;;;10.87;4.60;;;;;;;12.49;32.34;96319.59;4933225;29;20499;-57
2022/03/23 07:33:47;;;;;;;9.27;4.30;;;;;;;12.62;31.75;96320.16;4932936;29;20492;-66
2022/03/23 07:36:14;;;;;;;7.47;3.70;;;;;;;12.76;31.42;96321.47;4933082;29;20840;-69
2022/03/23 07:38:42;;;;;;;9.80;3.67;;;;;;;12.63;31.50;96320.94;4934484;29;20464;-58
2022/03/23 07:41:09;;;;;;;8.83;3.40;;;;;;;12.58;31.12;96324.28;4934531;29;20527;-56
2022/03/23 07:43:36;;;;;;;9.57;3.60;;;;;;;12.57;31.49;96325.28;4933364;29;20449;-62
2022/03/23 07:46:03;;;;;;;12.73;4.27;;;;;;;12.95;31.52;96322.91;4933051;29;20498;-64
2022/03/23 07:48:30;;;;;;;16.83;4.30;;;;;;;13.02;31.09;96315.69;4933357;29;20658;-65
2022/03/23 07:50:57;;;;;;;12.67;4.03;;;;;;;12.58;30.99;96318.22;4932940;29;20452;-59
2022/03/23 07:53:29;;;;;;;7.40;3.40;;;;;;;12.26;30.96;96320.47;4915582;29;20956;-59
2022/03/23 07:55:57;;;;;;;9.60;3.33;;;;;;;12.34;31.87;96314.84;4932785;29;20448;-62
2022/03/23 07:58:25;;;;;;;12.40;3.30;;;;;;;12.78;30.94;96316.78;4933296;29;20452;-63
2022/03/23 08:00:53;;;;;;;9.70;4.00;;;;;;;12.92;31.07;96318.09;4932499;29;20436;-58
2022/03/23 08:03:20;;;;;;;8.50;3.10;;;;;;;13.02;30.87;96307.81;4932484;29;20467;-60
2022/03/23 08:05:48;;;;;;;10.17;3.60;;;;;;;12.88;30.61;96314.34;4932364;29;20527;-66
2022/03/23 08:08:15;;;;;;;11.27;3.80;;;;;;;13.23;30.41;96305.53;4932855;29;20448;-66
2022/03/23 08:10:43;;;;;;;8.90;3.30;;;;;;;13.37;29.66;96301.53;4932356;29;20456;-60
2022/03/23 08:13:12;;;;;;;21.13;4.40;;;;;;;13.35;29.89;96299.16;4932498;29;20487;-64
2022/03/23 08:15:40;;;;;;;9.67;3.63;;;;;;;13.90;29.38;96301.88;4931997;29;20452;-65
2022/03/23 08:18:07;;;;;;;6.47;3.33;;;;;;;13.88;29.42;96298.66;4933051;29;20492;-60
2022/03/23 08:20:34;;;;;;;10.57;3.17;;;;;;;13.46;29.48;96302.75;4932046;29;20512;-60
2022/03/23 08:23:19;;;;;;;13.53;4.27;;;;;;;13.83;28.84;96295.97;4933130;29;20441;-64
2022/03/23 08:25:46;;;;;;;9.50;4.30;;;;;;;13.41;29.20;96300.03;4931872;29;20440;-62
2022/03/23 08:28:17;;;;;;;12.63;4.07;;;;;;;13.76;28.90;96298.75;4932950;29;20455;-66
2022/03/23 08:30:45;;;;;;;8.57;3.40;;;;;;;14.00;28.92;96302.00;4932112;29;20452;-54
2022/03/23 08:33:11;;;;;;;9.13;3.93;;;;;;;14.31;28.20;96293.50;4932132;29;20480;-65
2022/03/23 08:35:39;;;;;;;9.50;3.93;;;;;;;14.23;27.78;96307.09;4932042;29;20469;-61
2022/03/23 08:38:07;;;;;;;11.40;4.10;;;;;;;14.27;28.09;96302.91;4932028;29;20472;-60
2022/03/23 08:40:35;;;;;;;9.70;4.20;;;;;;;14.16;29.20;96304.59;4931879;29;20479;-64
2022/03/23 08:43:02;;;;;;;16.23;4.80;;;;;;;14.40;28.34;96299.94;4932372;29;20452;-57
2022/03/23 08:45:30;;;;;;;12.00;6.00;;;;;;;14.24;28.80;96304.19;4931927;29;20436;-61
2022/03/23 08:47:57;;;;;;;13.07;5.67;;;;;;;14.32;28.61;96305.66;4932287;29;20456;-65
2022/03/23 08:50:24;;;;;;;9.33;4.10;;;;;;;14.80;28.39;96307.53;4931929;29;20436;-66
2022/03/23 08:52:52;;;;;;;7.67;3.80;;;;;;;14.99;27.74;96291.13;4932350;29;20480;-66
2022/03/23 08:55:19;;;;;;;15.30;4.27;;;;;;;14.85;27.20;96295.19;4931622;29;20457;-62
2022/03/23 08:57:47;;;;;;;12.10;3.50;;;;;;;14.58;27.41;96304.91;4932119;29;20448;-58
2022/03/23 09:00:14;;;;;;;8.97;4.30;;;;;;;14.78;27.50;96294.59;4931921;29;20429;-62
2022/03/23 09:02:41;;;;;;;9.77;4.10;;;;;;;14.75;27.13;96291.66;4932930;29;20452;-57
2022/03/23 09:05:14;;;;;;;12.23;4.80;;;;;;;14.73;27.02;96289.25;4934557;29;20448;-58
2022/03/23 09:07:42;;;;;;;7.33;4.20;;;;;;;14.70;27.28;96281.03;4933807;29;21014;-63
2022/03/23 09:10:11;;;;;;;8.87;3.83;;;;;;;14.57;26.78;96279.59;4931792;29;20544;-61
2022/03/23 09:12:39;;;;;;;14.47;4.13;;;;;;;14.92;26.62;96279.16;4932378;29;20480;-60
2022/03/23 09:15:09;;;;;;;8.30;3.97;;;;;;;15.07;27.07;96282.75;4931330;29;20479;-65
2022/03/23 09:17:36;;;;;;;9.37;4.20;;;;;;;15.40;26.00;96283.59;4932451;29;20515;-59
2022/03/23 09:20:05;;;;;;;10.17;4.07;;;;;;;15.57;26.52;96286.91;4931787;29;20523;-62
2022/03/23 09:22:35;;;;;;;14.80;4.40;;;;;;;15.96;25.68;96275.03;4932285;29;20456;-58
2022/03/23 09:25:08;;;;;;;11.13;4.13;;;;;;;16.16;25.66;96275.97;4930889;29;20970;-59
2022/03/23 09:27:38;;;;;;;9.87;3.93;;;;;;;14.88;25.65;96291.25;4931913;29;20452;-64
2022/03/23 09:30:06;;;;;;;8.73;4.00;;;;;;;15.53;26.14;96280.56;4931397;29;20452;-56
2022/03/23 09:32:33;;;;;;;8.87;4.27;;;;;;;16.29;25.95;96258.03;4931967;29;20559;-62
2022/03/23 09:35:00;;;;;;;10.03;4.37;;;;;;;16.82;24.53;96273.63;4930968;29;20452;-58
2022/03/23 09:40:15;;;;;;;8.30;4.17;;;;;;;16.51;25.06;96270.06;4931367;29;20553;-64
2022/03/23 09:42:43;;;;;;;10.93;4.37;;;;;;;16.86;24.74;96254.28;4932066;29;20444;-58
2022/03/23 09:45:20;;;;;;;10.53;4.70;;;;;;;16.70;23.96;96263.25;4916268;29;20455;-59
2022/03/23 09:47:47;;;;;;;17.63;5.13;;;;;;;16.38;25.68;96259.94;4935351;29;20519;-63
2022/03/23 09:50:14;;;;;;;12.33;4.63;;;;;;;17.13;24.49;96260.16;4934657;29;20483;-62
2022/03/23 09:52:41;;;;;;;12.27;4.33;;;;;;;17.30;24.55;96244.03;4935360;29;20555;-63
2022/03/23 09:55:08;;;;;;;13.30;4.87;;;;;;;17.33;24.31;96243.50;4934700;29;20454;-61
2022/03/23 09:57:36;;;;;;;10.83;4.40;;;;;;;17.17;23.80;96250.63;4935215;29;20927;-62
2022/03/23 10:00:08;;;;;;;13.03;5.50;;;;;;;17.16;23.70;96249.06;4935025;29;20459;-60
2022/03/23 10:02:57;;;;;;;8.03;4.23;;;;;;;17.47;23.80;96244.59;4935813;29;20567;-65
2022/03/23 10:05:27;;;;;;;9.93;4.17;;;;;;;16.90;24.28;96234.19;4934860;29;20488;-65
2022/03/23 10:08:02;;;;;;;12.90;4.90;;;;;;;17.37;23.87;96230.53;4934958;29;20966;-59
2022/03/23 10:10:57;;;;;;;13.00;4.80;;;;;;;17.40;24.25;96232.63;4933010;29;20459;-61
2022/03/23 10:13:48;;;;;;;18.53;4.47;;;;;;;17.14;24.07;96219.38;4934648;29;20489;-64
2022/03/23 10:16:52;;;;;;;10.10;4.77;;;;;;;17.14;23.42;96211.44;4934457;29;20869;-63
2022/03/23 10:19:19;;;;;;;12.07;4.30;;;;;;;16.87;23.64;96216.19;4934626;29;21185;-57
2022/03/23 10:21:46;;;;;;;9.17;4.20;;;;;;;16.92;23.63;96200.28;4935197;29;20440;-62
2022/03/23 10:24:13;;;;;;;14.00;4.37;;;;;;;17.19;23.10;96200.03;4934625;29;20534;-66
2022/03/23 10:26:42;;;;;;;18.47;5.73;;;;;;;17.35;22.69;96203.50;4934521;29;20511;-67
2022/03/23 10:29:24;;;;;;;12.53;4.17;;;;;;;16.93;22.62;96195.81;4934154;29;20448;-62
2022/03/23 10:32:06;;;;;;;10.40;4.07;;;;;;;16.98;23.54;96199.25;4935558;29;20443;-63
2022/03/23 10:34:41;;;;;;;12.63;4.23;;;;;;;16.93;22.71;96212.47;4934408;29;20476;-60
2022/03/23 10:37:11;;;;;;;12.47;3.97;;;;;;;16.83;22.76;96206.34;4934766;29;20479;-67
2022/03/23 10:39:47;;;;;;;10.97;4.37;;;;;;;17.00;21.75;96205.09;4933922;29;20437;-64
2022/03/23 10:42:18;;;;;;;12.13;3.87;;;;;;;17.02;22.13;96204.81;4934370;29;20467;-60
2022/03/23 10:44:45;;;;;;;10.23;4.27;;;;;;;16.78;22.25;96199.22;4933991;29;20966;-58
2022/03/23 10:47:28;;;;;;;13.60;4.20;;;;;;;16.38;22.93;96199.09;4934693;29;20499;-63
2022/03/23 10:49:55;;;;;;;8.50;4.10;;;;;;;16.37;22.23;96208.06;4935751;29;20456;-59
2022/03/23 10:52:27;;;;;;;9.00;4.03;;;;;;;16.94;22.36;96202.66;4936447;29;20452;-59
2022/03/23 10:54:58;;;;;;;10.80;3.90;;;;;;;16.64;22.62;96207.91;4935576;29;20456;-62
2022/03/23 10:57:50;;;;;;;15.47;4.43;;;;;;;17.05;22.08;96194.47;4934310;29;20449;-59
2022/03/23 11:00:29;;;;;;;7.63;3.57;;;;;;;16.67;21.92;96197.59;4934244;29;20465;-59
2022/03/23 11:02:57;;;;;;;7.77;3.60;;;;;;;16.50;21.51;96197.03;4934060;29;20507;-57
2022/03/23 11:05:36;;;;;;;7.17;3.90;;;;;;;16.72;21.87;96181.72;4933520;29;20572;-63
2022/03/23 11:08:13;;;;;;;7.97;4.23;;;;;;;16.45;22.94;96181.13;4934428;29;20443;-58
2022/03/23 11:16:27;;;;;;;8.70;3.60;;;;;;;17.25;21.13;96177.78;4936692;29;20455;-58
2022/03/23 11:19:05;;;;;;;8.40;3.87;;;;;;;17.46;21.30;96183.88;4937628;29;20500;-59
2022/03/23 11:21:32;;;;;;;15.10;5.57;;;;;;;17.15;21.23;96178.59;4934020;29;20452;-63
2022/03/23 11:24:00;;;;;;;7.17;4.10;;;;;;;17.15;22.12;96188.41;4933659;29;20464;-61
2022/03/23 11:26:28;;;;;;;7.17;4.10;;;;;;;17.42;21.59;96177.50;4933705;29;20460;-59
2022/03/23 11:28:56;;;;;;;7.77;4.40;;;;;;;17.51;22.43;96171.44;4933548;29;20978;-63
2022/03/23 11:31:24;;;;;;;11.67;4.60;;;;;;;18.19;22.22;96167.28;4934125;29;20445;-67
2022/03/23 11:33:52;;;;;;;18.47;5.00;;;;;;;17.83;21.79;96176.41;4934420;29;20484;-67
2022/03/23 11:36:20;;;;;;;10.20;4.10;;;;;;;18.39;21.73;96151.25;4933520;29;20472;-64
2022/03/23 11:38:51;;;;;;;7.60;4.07;;;;;;;17.77;21.82;96161.59;4933860;29;20959;-67
2022/03/23 11:41:19;;;;;;;6.83;3.80;;;;;;;18.44;21.52;96159.22;4933523;29;20452;-58
2022/03/23 11:43:45;;;;;;;9.63;3.97;;;;;;;18.07;20.64;96148.22;4933831;29;20452;-72
2022/03/23 11:46:21;;;;;;;8.10;3.40;;;;;;;18.91;19.81;96148.81;4932649;29;20448;-60
2022/03/23 11:48:52;;;;;;;9.10;3.40;;;;;;;18.81;19.25;96143.56;4933409;29;20441;-61
2022/03/23 11:51:42;;;;;;;7.93;3.43;;;;;;;19.41;19.59;96137.03;4933081;29;20459;-61
2022/03/23 11:54:17;;;;;;;17.30;3.50;;;;;;;19.52;19.05;96132.38;4932963;29;20492;-63
2022/03/23 11:56:55;;;;;;;8.10;3.43;;;;;;;19.41;19.53;96136.22;4933245;29;20550;-62
2022/03/23 11:59:29;;;;;;;7.70;3.40;;;;;;;19.67;19.39;96124.25;4932900;29;20453;-68
2022/03/23 12:01:58;;;;;;;15.23;3.83;;;;;;;20.02;19.73;96119.31;4933356;29;20527;-68